Time;durP1;ratioP1;P1;durP2;ratioP2;P2;SDS_P1;SDS_P2;PMS_P1;PMS_P2;Temp;Humidity;BMP_temperature;BMP_pressure;BME280_temperature;BME280_humidity;BME280_pressure;Samples;Min_cycle;Max_cycle;Signal;HPM_P1;HPM_P2
2022/03/17 00:00:11;;;;;;;;;10.33;8.00;;;;;12.23;64.62;101602.34;5000991;28;45543;-62
2022/03/17 00:02:38;;;;;;;;;7.00;7.00;;;;;12.26;64.71;101615.56;4982424;28;45388;-61
2022/03/17 00:05:05;;;;;;;;;8.33;7.33;;;;;12.17;64.90;101601.78;5001041;28;45445;-61
2022/03/17 00:07:31;;;;;;;;;8.75;8.75;;;;;12.30;64.77;101633.16;5000177;28;45587;-60
2022/03/17 00:09:57;;;;;;;;;12.67;12.33;;;;;12.23;65.23;101633.50;4971349;28;45412;-61
2022/03/17 00:12:22;;;;;;;;;13.33;12.33;;;;;12.23;65.05;101637.03;4999325;28;45871;-62
2022/03/17 00:14:48;;;;;;;;;10.33;10.33;;;;;12.06;65.48;101613.81;5004975;28;45420;-61
2022/03/17 00:17:13;;;;;;;;;10.00;10.00;;;;;12.22;65.55;101651.31;5004975;28;45635;-61
2022/03/17 00:19:39;;;;;;;;;12.67;12.67;;;;;12.19;64.89;101661.25;5006483;28;45571;-62
2022/03/17 00:22:06;;;;;;;;;14.00;14.00;;;;;12.13;65.54;101643.75;5010112;28;45680;-62
2022/03/17 00:24:32;;;;;;;;;12.00;12.00;;;;;12.04;65.75;101641.50;5009480;28;45303;-61
2022/03/17 00:26:59;;;;;;;;;13.50;8.75;;;;;12.07;65.94;101660.00;5008430;28;45740;-60
2022/03/17 00:29:24;;;;;;;;;16.25;15.25;;;;;12.05;65.98;101662.75;5006806;28;46247;-61
2022/03/17 00:31:50;;;;;;;;;17.00;15.25;;;;;11.98;65.94;101657.75;5010319;28;45504;-61
2022/03/17 00:34:15;;;;;;;;;24.25;17.50;;;;;12.00;66.13;101663.91;5013451;28;45423;-62
2022/03/17 00:36:40;;;;;;;;;19.00;17.00;;;;;11.92;65.94;101656.25;5010348;28;45039;-62
2022/03/17 00:39:08;;;;;;;;;19.33;19.33;;;;;11.95;66.21;101676.56;5010063;28;46276;-60
2022/03/17 00:41:35;;;;;;;;;18.00;18.00;;;;;11.86;66.77;101677.84;5005038;28;45464;-61
2022/03/17 00:44:00;;;;;;;;;16.50;14.00;;;;;11.89;66.78;101698.16;5002799;28;45514;-62
2022/03/17 00:46:26;;;;;;;;;19.00;19.00;;;;;11.86;66.78;101674.31;5002577;28;45553;-61
2022/03/17 00:48:52;;;;;;;;;25.00;18.25;;;;;11.86;67.31;101695.66;4998969;28;45363;-62
2022/03/17 00:51:17;;;;;;;;;21.00;19.00;;;;;11.69;67.78;101697.19;5004400;28;45365;-61
2022/03/17 00:53:42;;;;;;;;;18.00;16.50;;;;;11.69;68.17;101705.19;5003652;28;45803;-62
2022/03/17 00:56:09;;;;;;;;;21.75;18.00;;;;;11.69;68.17;101697.19;5006457;28;45368;-59
2022/03/17 00:58:34;;;;;;;;;23.75;18.00;;;;;11.60;68.09;101702.94;5005745;28;45499;-60
2022/03/17 01:01:00;;;;;;;;;18.00;17.00;;;;;11.56;68.20;101701.31;4985566;28;45255;-60
2022/03/17 01:03:26;;;;;;;;;21.75;19.00;;;;;11.53;68.64;101717.44;5006487;28;45322;-60
2022/03/17 01:05:53;;;;;;;;;22.25;19.25;;;;;11.49;68.47;101700.72;4986184;28;45471;-61
2022/03/17 01:08:18;;;;;;;;;28.00;24.50;;;;;11.56;68.24;101711.97;4999364;28;45399;-64
2022/03/17 01:10:43;;;;;;;;;21.75;19.00;;;;;11.58;68.19;101707.44;4998660;28;45262;-62
2022/03/17 01:13:09;;;;;;;;;24.00;23.75;;;;;11.67;68.06;101720.38;5002747;28;46320;-61
2022/03/17 01:15:34;;;;;;;;;28.50;23.75;;;;;11.67;68.50;101719.50;5002441;28;46043;-60
2022/03/17 01:17:59;;;;;;;;;27.25;23.50;;;;;11.61;68.39;101722.44;5006529;28;45336;-60
2022/03/17 01:20:25;;;;;;;;;28.75;24.25;;;;;11.67;68.54;101736.34;5002993;28;45357;-61
2022/03/17 01:22:50;;;;;;;;;25.75;23.75;;;;;11.70;68.09;101733.56;4990266;28;45259;-62
2022/03/17 01:25:16;;;;;;;;;29.25;25.50;;;;;11.66;68.42;101718.63;5001130;28;45542;-59
2022/03/17 01:27:42;;;;;;;;;30.75;22.50;;;;;11.65;68.31;101734.69;4999406;28;46436;-62
2022/03/17 01:30:09;;;;;;;;;25.25;22.50;;;;;11.60;68.58;101729.56;5002136;28;45314;-61
2022/03/17 01:32:37;;;;;;;;;24.25;21.50;;;;;11.63;68.45;101729.44;5003088;28;45342;-64
2022/03/17 01:35:03;;;;;;;;;26.25;23.50;;;;;11.53;68.77;101738.75;5007769;28;45457;-61
2022/03/17 01:37:29;;;;;;;;;21.00;19.50;;;;;11.50;69.28;101760.19;4982557;28;46209;-60
2022/03/17 01:39:54;;;;;;;;;23.75;21.00;;;;;11.47;68.92;101753.19;5003399;28;45250;-60
2022/03/17 01:42:20;;;;;;;;;23.75;19.50;;;;;11.50;69.18;101757.53;5004397;28;45235;-62
2022/03/17 01:44:45;;;;;;;;;32.50;23.00;;;;;11.53;69.00;101754.72;5000615;28;45343;-61
2022/03/17 01:47:29;;;;;;;;;23.00;22.50;;;;;11.44;69.51;101739.97;5001322;28;45359;-60
2022/03/17 01:49:57;;;;;;;;;22.25;22.25;;;;;11.58;68.59;101763.38;5000639;28;45219;-60
2022/03/17 01:52:23;;;;;;;;;26.00;22.00;;;;;11.44;69.34;101760.41;5001298;28;45712;-61
2022/03/17 01:54:50;;;;;;;;;20.50;19.00;;;;;11.33;69.60;101763.56;5001672;28;45423;-61
2022/03/17 01:57:15;;;;;;;;;24.50;23.50;;;;;11.22;69.49;101756.00;4986321;28;48045;-60
2022/03/17 01:59:41;;;;;;;;;29.50;23.75;;;;;11.33;69.89;101778.63;4999876;28;45492;-61
2022/03/17 02:02:12;;;;;;;;;23.50;23.50;;;;;11.27;69.44;101781.56;5000715;28;45479;-61
2022/03/17 02:04:40;;;;;;;;;27.75;24.50;;;;;11.38;69.60;101782.00;5004013;28;45319;-60
2022/03/17 02:07:06;;;;;;;;;26.75;22.75;;;;;11.38;69.38;101766.88;4999022;28;45503;-61
2022/03/17 02:09:33;;;;;;;;;27.50;23.75;;;;;11.41;68.93;101793.38;4998105;28;45445;-60
2022/03/17 02:15:04;;;;;;;;;23.00;19.00;;;;;11.41;68.86;101789.84;5008154;28;44823;-60
2022/03/17 02:17:31;;;;;;;;;27.50;20.75;;;;;11.41;69.07;101792.53;5007192;28;46250;-62
2022/03/17 02:20:01;;;;;;;;;24.00;24.00;;;;;11.35;69.67;101798.09;5001429;28;45381;-62
2022/03/17 02:22:28;;;;;;;;;26.50;21.25;;;;;11.37;69.55;101814.88;5000602;28;46086;-62
2022/03/17 02:27:41;;;;;;;;;25.75;25.75;;;;;11.33;69.28;101813.25;4997248;28;45827;-60
2022/03/17 02:30:09;;;;;;;;;21.00;20.50;;;;;11.31;69.04;101818.66;5002888;28;45406;-60
2022/03/17 02:32:35;;;;;;;;;21.75;21.75;;;;;11.35;69.18;101835.41;4991691;28;45396;-61
2022/03/17 02:35:11;;;;;;;;;27.25;22.50;;;;;11.36;68.92;101826.47;5009211;28;45976;-60
2022/03/17 02:37:36;;;;;;;;;22.25;20.75;;;;;11.29;69.44;101832.97;5005233;28;46845;-60
2022/03/17 02:40:05;;;;;;;;;25.00;22.00;;;;;11.19;69.72;101813.78;5004315;28;45381;-59
2022/03/17 02:42:32;;;;;;;;;27.75;23.00;;;;;11.20;69.59;101824.41;4984446;28;45418;-60
2022/03/17 02:44:58;;;;;;;;;28.25;23.25;;;;;11.17;69.27;101815.66;5003760;28;45439;-59
2022/03/17 02:47:24;;;;;;;;;24.25;24.00;;;;;11.23;69.33;101829.63;5001090;28;46574;-61
2022/03/17 02:49:52;;;;;;;;;23.50;22.25;;;;;11.26;69.97;101835.75;5002654;28;45369;-60
2022/03/17 02:52:18;;;;;;;;;20.75;18.00;;;;;11.25;69.39;101820.69;5004468;28;45337;-63
2022/03/17 02:54:43;;;;;;;;;19.50;19.50;;;;;11.28;68.91;101823.22;5001849;28;45420;-60
2022/03/17 02:57:08;;;;;;;;;20.50;17.75;;;;;11.33;68.45;101848.78;5008847;28;46262;-61
2022/03/17 02:59:34;;;;;;;;;20.25;17.25;;;;;11.29;68.11;101840.94;5002988;28;45958;-60
2022/03/17 03:02:04;;;;;;;;;20.50;18.50;;;;;11.25;67.95;101834.00;5003502;28;45521;-61
2022/03/17 03:04:33;;;;;;;;;17.50;16.25;;;;;11.21;67.35;101847.47;5006737;28;45571;-60
2022/03/17 03:06:59;;;;;;;;;17.50;16.25;;;;;11.14;67.46;101848.59;5004462;28;46223;-60
2022/03/17 03:09:24;;;;;;;;;15.50;14.25;;;;;11.09;66.82;101863.91;4985391;28;45509;-63
2022/03/17 03:11:50;;;;;;;;;17.00;15.25;;;;;11.04;66.87;101852.53;4985362;28;45426;-59
2022/03/17 03:14:15;;;;;;;;;16.75;15.25;;;;;10.96;66.50;101848.44;5009208;28;45334;-61
2022/03/17 03:16:40;;;;;;;;;15.75;14.00;;;;;11.07;66.60;101873.75;5015532;28;45680;-62
2022/03/17 03:19:06;;;;;;;;;15.50;13.50;;;;;11.12;66.46;101876.22;4988397;28;45526;-61
2022/03/17 03:21:31;;;;;;;;;16.50;16.50;;;;;11.09;66.30;101882.53;5000999;28;45247;-61
2022/03/17 03:23:57;;;;;;;;;20.75;16.25;;;;;10.87;66.03;101860.28;5007107;28;45214;-61
2022/03/17 03:26:23;;;;;;;;;18.50;14.50;;;;;11.00;66.79;101887.31;4994828;28;46582;-59
2022/03/17 03:28:48;;;;;;;;;14.25;14.00;;;;;10.94;66.04;101877.78;5003796;28;45397;-60
2022/03/17 03:31:13;;;;;;;;;17.50;16.50;;;;;10.87;66.06;101873.59;4990627;28;45269;-59
2022/03/17 03:33:39;;;;;;;;;16.25;15.75;;;;;10.97;65.99;101882.13;5002145;28;45336;-60
2022/03/17 03:38:50;;;;;;;;;15.00;13.25;;;;;10.93;66.10;101894.66;5003397;28;45492;-61
2022/03/17 03:41:16;;;;;;;;;19.50;16.50;;;;;10.93;66.65;101898.19;5002352;28;45475;-60
2022/03/17 03:43:41;;;;;;;;;14.00;12.25;;;;;10.92;66.74;101898.25;5009888;28;45628;-61
2022/03/17 03:46:06;;;;;;;;;17.00;14.50;;;;;10.76;66.99;101918.34;5006177;28;45428;-60
2022/03/17 03:48:32;;;;;;;;;16.75;16.75;;;;;10.81;67.25;101908.44;5011548;28;45397;-61
2022/03/17 03:50:57;;;;;;;;;22.00;20.75;;;;;10.85;66.83;101923.38;5007237;28;46219;-63
2022/03/17 03:53:22;;;;;;;;;17.50;17.50;;;;;10.79;66.59;101920.91;5007891;28;45250;-60
2022/03/17 03:55:48;;;;;;;;;21.75;18.00;;;;;10.70;66.85;101931.91;5006730;28;45286;-61
2022/03/17 03:58:13;;;;;;;;;16.25;15.75;;;;;10.64;66.59;101938.28;5006083;28;45316;-60
2022/03/17 04:00:41;;;;;;;;;20.00;16.75;;;;;10.68;66.73;101944.34;5001126;28;45702;-59
2022/03/17 04:03:07;;;;;;;;;15.00;15.00;;;;;10.64;67.18;101949.78;4982513;28;45558;-60
2022/03/17 04:05:33;;;;;;;;;22.25;18.50;;;;;10.62;66.70;101940.13;5003090;28;45607;-61
2022/03/17 04:07:59;;;;;;;;;13.00;13.00;;;;;10.70;67.32;101964.69;5002109;28;46463;-61
2022/03/17 04:10:26;;;;;;;;;15.50;15.50;;;;;10.76;67.05;101964.47;5006355;28;45501;-61
2022/03/17 04:12:51;;;;;;;;;14.75;13.75;;;;;10.79;66.13;101972.34;5010803;28;45311;-60
2022/03/17 04:15:17;;;;;;;;;16.75;15.25;;;;;10.73;66.18;101969.91;5013271;28;45537;-64
2022/03/17 04:17:42;;;;;;;;;17.50;16.75;;;;;10.76;66.20;101980.44;5009196;28;45471;-60
2022/03/17 04:20:09;;;;;;;;;18.50;12.25;;;;;10.73;65.80;101985.00;5006409;28;45290;-61
2022/03/17 04:22:34;;;;;;;;;21.00;18.25;;;;;10.58;66.75;101978.41;5000971;28;45276;-60
2022/03/17 04:25:00;;;;;;;;;22.25;17.50;;;;;10.51;66.75;101988.38;4997415;28;45524;-60
2022/03/17 04:27:25;;;;;;;;;17.50;16.00;;;;;10.54;66.50;101996.25;4999376;28;45307;-60
2022/03/17 04:29:51;;;;;;;;;16.00;12.00;;;;;10.50;66.15;101999.94;5004223;28;45311;-59
2022/03/17 04:32:16;;;;;;;;;21.50;12.50;;;;;10.55;66.04;101991.81;5006914;28;45655;-60
2022/03/17 04:34:42;;;;;;;;;16.75;16.00;;;;;10.55;66.34;102006.00;5001050;28;46287;-60
2022/03/17 04:37:07;;;;;;;;;17.25;14.25;;;;;10.46;65.82;102005.41;5003810;28;45341;-59
2022/03/17 04:39:33;;;;;;;;;16.25;12.50;;;;;10.42;65.59;102012.63;4987279;28;45480;-61
2022/03/17 04:41:58;;;;;;;;;8.00;7.00;;;;;10.49;64.80;102022.13;5003484;28;45413;-60
2022/03/17 04:44:24;;;;;;;;;11.50;9.75;;;;;10.40;65.11;102025.09;4982732;28;47505;-60
2022/03/17 04:46:50;;;;;;;;;8.00;8.00;;;;;10.35;64.63;102021.72;4999543;28;45313;-61
2022/03/17 04:49:16;;;;;;;;;14.00;12.00;;;;;10.38;64.99;102026.94;4979361;28;45342;-59
2022/03/17 04:51:41;;;;;;;;;11.25;10.75;;;;;10.28;64.39;102026.34;4999991;28;45342;-61
2022/03/17 04:54:07;;;;;;;;;8.50;7.50;;;;;10.35;65.08;102048.31;4999994;28;46104;-60
2022/03/17 04:56:32;;;;;;;;;9.75;9.75;;;;;10.23;64.74;102049.56;5004187;28;45465;-60
2022/03/17 04:58:58;;;;;;;;;7.00;7.00;;;;;10.21;64.88;102039.88;5008589;28;45436;-61
2022/03/17 05:01:23;;;;;;;;;8.25;7.75;;;;;10.14;65.45;102041.84;5004435;28;45495;-64
2022/03/17 05:03:49;;;;;;;;;14.50;10.50;;;;;10.14;64.59;102054.25;5005584;28;45455;-60
2022/03/17 05:06:15;;;;;;;;;8.00;8.00;;;;;10.17;65.04;102057.72;5011870;28;45282;-60
2022/03/17 05:08:42;;;;;;;;;7.75;7.75;;;;;10.20;64.14;102054.09;5006458;28;46612;-60
2022/03/17 05:11:09;;;;;;;;;12.00;8.00;;;;;10.22;64.68;102057.59;5006279;28;45512;-59
2022/03/17 05:13:35;;;;;;;;;7.00;7.00;;;;;10.12;64.15;102061.41;4987503;28;45457;-61
2022/03/17 05:16:02;;;;;;;;;8.50;8.50;;;;;10.07;64.43;102064.22;5005067;28;45275;-59
2022/03/17 05:18:28;;;;;;;;;5.75;5.75;;;;;10.01;64.32;102067.94;4987401;28;45432;-59
2022/03/17 05:20:53;;;;;;;;;11.75;8.00;;;;;9.96;65.15;102072.53;5008529;28;45163;-60
2022/03/17 05:23:20;;;;;;;;;8.25;6.25;;;;;9.95;64.75;102081.41;4988926;28;45468;-61
2022/03/17 05:25:47;;;;;;;;;7.00;5.25;;;;;9.96;64.89;102080.50;4998550;28;45383;-60
2022/03/17 05:28:14;;;;;;;;;10.75;9.00;;;;;10.01;65.04;102096.28;4998768;28;45326;-60
2022/03/17 05:30:41;;;;;;;;;7.00;7.00;;;;;9.97;64.82;102079.56;5003343;28;45862;-61
2022/03/17 05:33:07;;;;;;;;;6.25;6.00;;;;;9.92;64.53;102089.47;4999663;28;46237;-61
2022/03/17 05:35:33;;;;;;;;;9.75;8.75;;;;;10.04;64.01;102101.53;4995224;28;45410;-62
2022/03/17 05:38:00;;;;;;;;;5.25;5.25;;;;;10.09;64.86;102107.59;4980488;28;45203;-62
2022/03/17 05:40:26;;;;;;;;;11.00;8.00;;;;;10.01;64.60;102097.16;5001958;28;45167;-60
2022/03/17 05:42:54;;;;;;;;;11.00;8.00;;;;;10.05;64.56;102122.75;5003183;28;46273;-60
2022/03/17 05:45:21;;;;;;;;;9.50;7.50;;;;;9.92;64.60;102094.81;5000402;28;45500;-62
2022/03/17 05:47:49;;;;;;;;;11.25;10.75;;;;;9.93;65.68;102120.47;5000998;28;45306;-59
2022/03/17 05:50:21;;;;;;;;;10.25;10.25;;;;;9.98;65.41;102121.19;4999394;28;45311;-60
2022/03/17 05:52:48;;;;;;;;;1.00;1.00;;;;;9.99;65.78;102125.56;4986924;28;47769;-61
2022/03/17 05:55:16;;;;;;;;;10.75;10.00;;;;;10.02;65.74;102130.78;5004642;28;45310;-60
2022/03/17 05:57:43;;;;;;;;;12.25;9.00;;;;;9.93;66.17;102131.09;5008890;28;45268;-61
2022/03/17 06:00:17;;;;;;;;;14.00;12.00;;;;;9.94;65.78;102135.47;4977739;28;45503;-61
2022/03/17 06:02:43;;;;;;;;;9.00;9.00;;;;;9.95;66.26;102145.19;5003789;28;45579;-61
2022/03/17 06:05:09;;;;;;;;;14.25;10.75;;;;;9.90;65.40;102141.81;4983627;28;45364;-61
2022/03/17 06:07:40;;;;;;;;;12.00;10.00;;;;;10.02;66.18;102151.19;5000253;28;45766;-60
2022/03/17 06:10:08;;;;;;;;;10.75;8.25;;;;;9.97;65.64;102148.69;5001109;28;45580;-61
2022/03/17 06:12:34;;;;;;;;;12.25;8.50;;;;;9.97;64.82;102146.03;5004901;28;46012;-61
2022/03/17 06:15:02;;;;;;;;;6.00;6.00;;;;;10.03;64.25;102163.59;4999745;28;45404;-60
2022/03/17 06:17:48;;;;;;;;;8.50;5.25;;;;;9.96;64.00;102156.69;5010558;28;45297;-60
2022/03/17 06:20:26;;;;;;;;;6.50;6.50;;;;;9.99;63.36;102188.50;5006743;28;45503;-63
2022/03/17 06:22:53;;;;;;;;;7.25;6.25;;;;;10.02;63.72;102183.97;4989525;28;47554;-61
2022/03/17 06:25:21;;;;;;;;;10.25;7.75;;;;;9.96;62.17;102181.50;4990283;28;45380;-60
2022/03/17 06:27:48;;;;;;;;;9.00;6.75;;;;;9.97;62.53;102190.34;5016107;28;44864;-61
2022/03/17 06:30:21;;;;;;;;;6.00;6.00;;;;;9.84;62.67;102178.31;4999077;28;45596;-61
2022/03/17 06:32:47;;;;;;;;;7.00;3.50;;;;;9.90;62.93;102200.28;5012253;28;45527;-62
2022/03/17 06:35:18;;;;;;;;;10.25;8.25;;;;;9.94;62.78;102217.00;4988621;28;45334;-62
2022/03/17 06:37:45;;;;;;;;;9.75;8.00;;;;;9.91;62.53;102212.66;4990743;28;45523;-61
2022/03/17 06:40:11;;;;;;;;;8.00;7.00;;;;;9.87;62.21;102213.63;5006551;28;44909;-65
2022/03/17 06:42:37;;;;;;;;;5.00;5.00;;;;;9.68;62.48;102212.38;4989516;28;47900;-60
2022/03/17 06:45:03;;;;;;;;;11.00;9.50;;;;;9.75;61.81;102240.53;5008921;28;45469;-60
2022/03/17 06:47:28;;;;;;;;;7.00;6.25;;;;;9.61;62.36;102247.97;5002947;28;45334;-60
2022/03/17 06:49:54;;;;;;;;;4.50;4.50;;;;;9.70;62.81;102245.97;4998775;28;45397;-60
2022/03/17 06:52:20;;;;;;;;;6.50;6.50;;;;;9.63;62.31;102249.69;4997614;28;45539;-62
2022/03/17 06:54:46;;;;;;;;;1.50;1.00;;;;;9.68;62.36;102262.88;5002417;28;45489;-65
2022/03/17 06:57:17;;;;;;;;;7.00;6.00;;;;;9.69;62.74;102259.28;5005581;28;45226;-64
2022/03/17 06:59:43;;;;;;;;;7.00;7.00;;;;;9.88;61.97;102264.97;5005160;28;45436;-62
2022/03/17 07:02:08;;;;;;;;;5.75;5.75;;;;;9.69;61.11;102240.69;5009385;28;45591;-62
2022/03/17 07:04:33;;;;;;;;;7.00;5.50;;;;;9.68;61.06;102246.94;5004089;28;44829;-62
2022/03/17 07:06:59;;;;;;;;;10.00;6.00;;;;;9.76;60.42;102271.50;5006716;28;45165;-64
2022/03/17 07:09:25;;;;;;;;;5.75;5.00;;;;;9.75;61.25;102294.53;5005886;28;45570;-61
2022/03/17 07:11:50;;;;;;;;;5.25;5.25;;;;;9.79;61.69;102281.19;5008252;28;45447;-60
2022/03/17 07:14:15;;;;;;;;;2.75;2.75;;;;;9.86;60.05;102283.63;5006423;28;45391;-62
2022/03/17 07:16:41;;;;;;;;;5.25;5.25;;;;;9.88;60.31;102289.78;5006076;28;45669;-62
2022/03/17 07:19:07;;;;;;;;;7.25;5.25;;;;;9.81;60.36;102282.88;5005148;28;45286;-63
2022/03/17 07:21:33;;;;;;;;;4.00;3.50;;;;;9.82;60.05;102287.28;5003481;28;46478;-63
2022/03/17 07:23:59;;;;;;;;;9.00;5.00;;;;;9.94;59.66;102297.59;4985539;28;45282;-63
2022/03/17 07:26:26;;;;;;;;;4.50;4.50;;;;;9.93;60.02;102317.13;5004497;28;45396;-61
2022/03/17 07:28:54;;;;;;;;;10.25;10.25;;;;;9.95;59.91;102312.63;4985707;28;45618;-61
2022/03/17 07:31:20;;;;;;;;;6.00;5.50;;;;;10.07;59.91;102307.91;5001144;28;45989;-64
2022/03/17 07:33:46;;;;;;;;;9.75;6.00;;;;;10.07;59.53;102324.75;4999864;28;45612;-62
2022/03/17 07:36:11;;;;;;;;;5.25;5.25;;;;;9.96;59.19;102322.34;5012157;28;45424;-62
2022/03/17 07:38:36;;;;;;;;;7.00;5.25;;;;;9.93;59.38;102338.38;5009217;28;45568;-63
2022/03/17 07:41:02;;;;;;;;;6.00;6.00;;;;;9.92;59.01;102335.78;4991559;28;45410;-63
2022/03/17 07:43:27;;;;;;;;;6.00;6.00;;;;;9.96;59.67;102340.09;5010464;28;45216;-64
2022/03/17 07:45:53;;;;;;;;;6.50;6.50;;;;;9.92;59.87;102326.00;5007780;28;45515;-62
2022/03/17 07:48:20;;;;;;;;;8.25;6.25;;;;;9.88;59.43;102328.75;4991469;28;45725;-65
2022/03/17 07:50:46;;;;;;;;;9.50;6.50;;;;;9.92;58.90;102347.28;4993412;28;46193;-62
2022/03/17 07:53:11;;;;;;;;;5.00;5.00;;;;;9.88;59.19;102339.41;4987653;28;45499;-62
2022/03/17 07:55:37;;;;;;;;;11.00;6.25;;;;;9.99;60.74;102348.84;5002350;28;45262;-64
2022/03/17 07:58:03;;;;;;;;;3.00;3.00;;;;;9.96;59.47;102337.44;4997885;28;45432;-63
2022/03/17 08:00:28;;;;;;;;;6.00;6.00;;;;;9.91;59.88;102361.47;5004220;28;46417;-62
2022/03/17 08:02:54;;;;;;;;;6.75;5.00;;;;;9.81;59.74;102365.25;5012065;28;45289;-63
2022/03/17 08:05:20;;;;;;;;;6.00;5.75;;;;;9.76;60.32;102369.78;5011581;28;45242;-62
2022/03/17 08:07:45;;;;;;;;;5.00;5.00;;;;;9.83;59.22;102363.44;5012830;28;45316;-63
2022/03/17 08:10:11;;;;;;;;;7.50;5.50;;;;;9.74;58.98;102348.59;4991515;28;47008;-62
2022/03/17 08:12:37;;;;;;;;;8.00;8.00;;;;;9.71;59.04;102375.22;4996706;28;45316;-61
2022/03/17 08:15:05;;;;;;;;;7.50;5.75;;;;;9.80;59.61;102384.78;5009429;28;45361;-60
2022/03/17 08:17:31;;;;;;;;;3.00;3.00;;;;;9.83;58.53;102378.50;5003317;28;44853;-64
2022/03/17 08:19:57;;;;;;;;;7.00;6.75;;;;;9.92;58.72;102392.44;5003331;28;45401;-61
2022/03/17 08:22:23;;;;;;;;;11.50;6.25;;;;;9.87;59.58;102374.84;5001437;28;45374;-62
2022/03/17 08:24:48;;;;;;;;;10.00;8.00;;;;;9.96;59.50;102390.59;4998617;28;45506;-61
2022/03/17 08:27:14;;;;;;;;;6.50;6.50;;;;;10.07;59.67;102414.25;4999200;28;45241;-61
2022/03/17 08:29:40;;;;;;;;;7.75;6.75;;;;;9.80;58.96;102395.41;4997367;28;45687;-62
2022/03/17 08:32:10;;;;;;;;;10.50;6.75;;;;;9.87;58.63;102406.75;4994923;28;45383;-62
2022/03/17 08:34:36;;;;;;;;;10.75;9.75;;;;;9.70;59.39;102404.50;4996837;28;45539;-63
2022/03/17 08:37:02;;;;;;;;;8.25;6.25;;;;;9.60;59.42;102379.91;4975369;28;45663;-61
2022/03/17 08:39:27;;;;;;;;;6.50;6.50;;;;;9.84;59.80;102420.97;4968887;28;45496;-63
2022/03/17 08:41:56;;;;;;;;;10.75;6.00;;;;;9.77;58.86;102427.38;4988428;28;45493;-61
2022/03/17 08:44:22;;;;;;;;;6.25;6.25;;;;;9.61;58.94;102425.97;4988803;28;45534;-61
2022/03/17 08:49:32;;;;;;;;;12.00;9.00;;;;;9.67;59.59;102449.75;4992175;28;45727;-62
2022/03/17 08:52:02;;;;;;;;;6.50;6.50;;;;;9.80;58.53;102453.88;4991465;28;45516;-61
2022/03/17 08:54:29;;;;;;;;;11.00;7.00;;;;;9.91;58.88;102461.59;4989576;28;45484;-62
2022/03/17 08:56:59;;;;;;;;;9.25;7.00;;;;;9.95;58.47;102452.63;4987451;28;45535;-62
2022/03/17 08:59:31;;;;;;;;;13.00;9.00;;;;;10.06;58.54;102466.53;4986398;28;45540;-63
2022/03/17 09:02:00;;;;;;;;;8.25;6.00;;;;;9.98;58.46;102482.66;4987948;28;45457;-63
2022/03/17 09:04:27;;;;;;;;;9.00;8.25;;;;;9.99;58.33;102479.09;4978156;28;45502;-62
2022/03/17 09:06:58;;;;;;;;;10.25;7.50;;;;;9.89;58.14;102482.88;4979681;28;45559;-61
2022/03/17 09:09:26;;;;;;;;;8.75;8.75;;;;;9.79;58.40;102484.00;4997713;28;45517;-62
2022/03/17 09:11:52;;;;;;;;;20.00;13.25;;;;;9.83;58.90;102477.69;4998679;28;45537;-63
2022/03/17 09:14:17;;;;;;;;;8.50;7.00;;;;;9.98;59.49;102489.75;4998689;28;44846;-62
2022/03/17 09:16:43;;;;;;;;;10.75;10.75;;;;;10.12;58.18;102484.13;4998907;28;45693;-61
2022/03/17 09:19:08;;;;;;;;;9.50;9.50;;;;;10.15;59.01;102487.56;4999948;28;46279;-64
2022/03/17 09:21:35;;;;;;;;;11.00;9.50;;;;;10.10;58.91;102492.13;4982376;28;45439;-62
2022/03/17 09:24:01;;;;;;;;;10.00;7.25;;;;;9.98;58.46;102472.03;4999388;28;45469;-63
2022/03/17 09:26:27;;;;;;;;;10.50;7.50;;;;;10.22;58.76;102504.28;4999335;28;45257;-63
2022/03/17 09:28:52;;;;;;;;;13.75;8.25;;;;;10.09;58.08;102485.06;4999042;28;46740;-62
2022/03/17 09:31:18;;;;;;;;;12.00;8.50;;;;;10.25;57.76;102494.44;4999117;28;45323;-62
2022/03/17 09:33:45;;;;;;;;;12.00;7.50;;;;;10.35;57.76;102500.44;4999833;28;45397;-63
2022/03/17 09:36:11;;;;;;;;;10.00;7.25;;;;;10.29;58.33;102512.09;4999601;28;45650;-60
2022/03/17 09:38:36;;;;;;;;;10.75;7.00;;;;;10.17;57.68;102501.72;4998260;28;45498;-63
2022/03/17 09:41:23;;;;;;;;;13.75;11.00;;;;;10.20;58.41;102506.97;4998350;28;45436;-63
2022/03/17 09:43:47;;;;;;;;;10.75;8.00;;;;;10.11;58.74;102506.28;4995206;28;45510;-63
2022/03/17 09:46:15;;;;;;;;;7.50;7.50;;;;;10.10;58.19;102526.69;4983114;28;45678;-63
2022/03/17 09:48:42;;;;;;;;;10.00;10.00;;;;;9.95;58.47;102514.63;4999322;28;45262;-62
2022/03/17 09:51:07;;;;;;;;;15.00;12.50;;;;;10.03;59.31;102525.97;4998180;28;45460;-63
2022/03/17 09:53:32;;;;;;;;;12.50;11.25;;;;;10.17;59.01;102524.78;4963530;28;45769;-61
2022/03/17 09:55:58;;;;;;;;;10.00;10.00;;;;;10.13;59.11;102523.09;4999285;28;44942;-65
2022/03/17 09:58:23;;;;;;;;;11.00;11.00;;;;;10.10;58.74;102516.06;4999324;28;45793;-61
2022/03/17 10:00:49;;;;;;;;;11.00;11.00;;;;;10.28;58.48;102530.72;4980417;28;45589;-61
2022/03/17 10:03:25;;;;;;;;;13.50;10.25;;;;;10.27;57.86;102542.28;4997800;28;45428;-62
2022/03/17 10:05:51;;;;;;;;;8.50;5.75;;;;;10.31;57.97;102536.88;4976781;28;45571;-61
2022/03/17 10:08:18;;;;;;;;;8.50;7.00;;;;;10.37;57.97;102546.47;4994201;28;45559;-60
2022/03/17 10:10:44;;;;;;;;;13.75;12.25;;;;;10.29;57.90;102525.41;4996937;28;45380;-61
2022/03/17 10:13:11;;;;;;;;;18.75;11.50;;;;;10.21;58.03;102539.75;4979731;28;45469;-62
2022/03/17 10:15:37;;;;;;;;;9.75;9.75;;;;;9.99;58.04;102529.59;5002230;28;45546;-61
2022/03/17 10:18:19;;;;;;;;;16.25;6.50;;;;;10.15;58.24;102529.22;4986174;28;47159;-63
2022/03/17 10:20:46;;;;;;;;;8.00;8.00;;;;;10.33;56.80;102544.81;4983208;28;45372;-63
2022/03/17 10:23:11;;;;;;;;;8.00;8.00;;;;;10.42;56.03;102541.94;4982734;28;45270;-60
2022/03/17 10:25:37;;;;;;;;;10.50;10.50;;;;;10.52;56.63;102546.09;5002597;28;45484;-60
2022/03/17 10:28:04;;;;;;;;;11.00;8.50;;;;;10.58;56.02;102543.28;5000582;28;45934;-61
2022/03/17 10:30:35;;;;;;;;;9.75;7.75;;;;;10.48;55.09;102554.19;5001154;28;45448;-63
2022/03/17 10:33:09;;;;;;;;;11.50;10.50;;;;;10.38;56.08;102542.91;5000395;28;45409;-63
2022/03/17 10:35:48;;;;;;;;;11.75;11.75;;;;;10.52;55.57;102556.72;5000294;28;45488;-63
2022/03/17 10:38:15;;;;;;;;;11.25;8.25;;;;;10.57;55.90;102562.84;4999640;28;45384;-64
2022/03/17 10:40:41;;;;;;;;;17.50;12.75;;;;;10.50;55.73;102558.56;5001339;28;45522;-63
2022/03/17 10:43:24;;;;;;;;;12.25;10.75;;;;;10.60;55.78;102568.06;4997231;28;45321;-62
2022/03/17 10:46:22;;;;;;;;;14.00;10.50;;;;;10.82;55.72;102575.53;4985433;28;45519;-63
2022/03/17 10:49:02;;;;;;;;;18.25;14.00;;;;;10.97;55.08;102571.59;5001173;28;47324;-64
2022/03/17 10:51:40;;;;;;;;;9.75;9.75;;;;;10.97;54.01;102577.78;5002771;28;45373;-62
2022/03/17 10:54:11;;;;;;;;;9.75;7.50;;;;;10.79;54.45;102587.09;5001808;28;45564;-61
2022/03/17 10:56:39;;;;;;;;;12.00;10.75;;;;;10.64;54.27;102583.03;5005061;28;45179;-60
2022/03/17 10:59:06;;;;;;;;;8.50;8.50;;;;;10.70;53.38;102586.47;5003395;28;46881;-61
2022/03/17 11:01:40;;;;;;;;;14.25;11.50;;;;;10.58;53.93;102601.81;5003284;28;45885;-61
2022/03/17 11:04:07;;;;;;;;;12.25;12.25;;;;;10.56;54.48;102595.69;5000107;28;45524;-65
2022/03/17 11:06:33;;;;;;;;;11.75;11.75;;;;;10.66;54.65;102606.94;4998318;28;45566;-66
2022/03/17 11:09:01;;;;;;;;;13.25;10.75;;;;;10.57;54.77;102600.09;4964969;28;46696;-61
2022/03/17 11:11:30;;;;;;;;;11.25;11.25;;;;;10.58;55.47;102593.84;4976650;28;46485;-64
2022/03/17 11:13:58;;;;;;;;;12.00;12.00;;;;;10.47;55.13;102597.66;4977248;28;45532;-62
2022/03/17 11:16:39;;;;;;;;;14.25;11.25;;;;;10.36;55.42;102584.63;4992575;28;46135;-62
2022/03/17 11:19:07;;;;;;;;;11.00;11.00;;;;;10.58;55.30;102604.50;4979291;28;46376;-61
2022/03/17 11:21:33;;;;;;;;;10.75;10.75;;;;;10.72;55.03;102596.16;4990040;28;45710;-63
2022/03/17 11:24:04;;;;;;;;;16.75;13.00;;;;;10.91;55.38;102607.22;4991260;28;45877;-61
2022/03/17 11:26:39;;;;;;;;;11.25;11.25;;;;;10.98;54.90;102592.84;4994730;28;45458;-60